sensor_id;sensor_type;location;lat;lon;timestamp;temperature;humidity
63202;DHT22;49296;48.188;11.566;2022-09-24T00:00:33;14.57;65.79
63202;DHT22;49296;48.188;11.566;2022-09-24T00:03:00;14.53;65.80
63202;DHT22;49296;48.188;11.566;2022-09-24T00:05:26;14.45;66.02
63202;DHT22;49296;48.188;11.566;2022-09-24T00:07:53;14.49;65.88
63202;DHT22;49296;48.188;11.566;2022-09-24T00:10:19;14.45;65.97
63202;DHT22;49296;48.188;11.566;2022-09-24T00:12:47;14.42;66.11
63202;DHT22;49296;48.188;11.566;2022-09-24T00:15:13;14.48;65.97
63202;DHT22;49296;48.188;11.566;2022-09-24T00:17:41;14.46;65.88
63202;DHT22;49296;48.188;11.566;2022-09-24T00:20:08;14.49;66.03
63202;DHT22;49296;48.188;11.566;2022-09-24T00:22:34;14.46;66.13
63202;DHT22;49296;48.188;11.566;2022-09-24T00:25:01;14.46;66.24
63202;DHT22;49296;48.188;11.566;2022-09-24T00:27:45;14.46;66.14
63202;DHT22;49296;48.188;11.566;2022-09-24T00:30:12;14.48;66.18
63202;DHT22;49296;48.188;11.566;2022-09-24T00:32:38;14.43;66.25
63202;DHT22;49296;48.188;11.566;2022-09-24T00:35:06;14.40;66.45
63202;DHT22;49296;48.188;11.566;2022-09-24T00:37:33;14.45;66.43
63202;DHT22;49296;48.188;11.566;2022-09-24T00:40:00;14.39;66.46
63202;DHT22;49296;48.188;11.566;2022-09-24T00:42:26;14.40;66.31
63202;DHT22;49296;48.188;11.566;2022-09-24T00:44:56;14.42;66.47
63202;DHT22;49296;48.188;11.566;2022-09-24T00:47:30;14.48;66.49
63202;DHT22;49296;48.188;11.566;2022-09-24T00:50:00;14.40;66.56
63202;DHT22;49296;48.188;11.566;2022-09-24T00:52:31;14.42;66.50
63202;DHT22;49296;48.188;11.566;2022-09-24T00:54:58;14.40;66.62
63202;DHT22;49296;48.188;11.566;2022-09-24T00:57:25;14.43;66.61
63202;DHT22;49296;48.188;11.566;2022-09-24T00:59:52;14.39;66.65
63202;DHT22;49296;48.188;11.566;2022-09-24T01:02:19;14.38;66.77
63202;DHT22;49296;48.188;11.566;2022-09-24T01:04:46;14.36;66.89
63202;DHT22;49296;48.188;11.566;2022-09-24T01:07:12;14.28;66.95
63202;DHT22;49296;48.188;11.566;2022-09-24T01:09:40;14.29;67.02
63202;DHT22;49296;48.188;11.566;2022-09-24T01:12:09;14.26;67.02
63202;DHT22;49296;48.188;11.566;2022-09-24T01:14:51;14.26;67.05
63202;DHT22;49296;48.188;11.566;2022-09-24T01:17:21;14.22;67.19
63202;DHT22;49296;48.188;11.566;2022-09-24T01:22:36;14.18;67.42
63202;DHT22;49296;48.188;11.566;2022-09-24T01:25:11;14.20;67.52
63202;DHT22;49296;48.188;11.566;2022-09-24T01:27:44;14.22;67.59
63202;DHT22;49296;48.188;11.566;2022-09-24T01:30:20;14.18;67.55
63202;DHT22;49296;48.188;11.566;2022-09-24T01:32:50;14.18;67.49
63202;DHT22;49296;48.188;11.566;2022-09-24T01:35:18;14.18;67.53
63202;DHT22;49296;48.188;11.566;2022-09-24T01:37:47;14.17;67.47
63202;DHT22;49296;48.188;11.566;2022-09-24T01:40:14;14.15;67.57
63202;DHT22;49296;48.188;11.566;2022-09-24T01:42:42;14.14;67.55
63202;DHT22;49296;48.188;11.566;2022-09-24T01:45:10;14.11;67.53
63202;DHT22;49296;48.188;11.566;2022-09-24T01:47:39;14.11;67.45
63202;DHT22;49296;48.188;11.566;2022-09-24T01:50:07;14.08;67.59
63202;DHT22;49296;48.188;11.566;2022-09-24T01:52:35;14.08;67.77
63202;DHT22;49296;48.188;11.566;2022-09-24T01:55:04;14.05;67.98
63202;DHT22;49296;48.188;11.566;2022-09-24T01:57:32;14.00;68.07
63202;DHT22;49296;48.188;11.566;2022-09-24T02:00:00;13.97;68.17
63202;DHT22;49296;48.188;11.566;2022-09-24T02:02:29;14.01;68.20
63202;DHT22;49296;48.188;11.566;2022-09-24T02:05:00;14.01;68.14
63202;DHT22;49296;48.188;11.566;2022-09-24T02:07:30;14.00;68.15
63202;DHT22;49296;48.188;11.566;2022-09-24T02:09:58;13.93;68.37
63202;DHT22;49296;48.188;11.566;2022-09-24T02:12:26;13.86;68.48
63202;DHT22;49296;48.188;11.566;2022-09-24T02:14:54;13.88;68.58
63202;DHT22;49296;48.188;11.566;2022-09-24T02:17:23;13.91;68.66
63202;DHT22;49296;48.188;11.566;2022-09-24T02:19:50;13.90;68.56
63202;DHT22;49296;48.188;11.566;2022-09-24T02:22:19;13.93;68.44
63202;DHT22;49296;48.188;11.566;2022-09-24T02:24:46;13.91;68.47
63202;DHT22;49296;48.188;11.566;2022-09-24T02:27:13;13.88;68.80
63202;DHT22;49296;48.188;11.566;2022-09-24T02:29:40;13.87;68.78
63202;DHT22;49296;48.188;11.566;2022-09-24T02:32:07;13.86;68.80
63202;DHT22;49296;48.188;11.566;2022-09-24T02:34:35;13.73;68.99
63202;DHT22;49296;48.188;11.566;2022-09-24T02:37:03;13.81;68.79
63202;DHT22;49296;48.188;11.566;2022-09-24T02:39:31;13.80;68.81
63202;DHT22;49296;48.188;11.566;2022-09-24T02:41:58;13.80;68.74
63202;DHT22;49296;48.188;11.566;2022-09-24T02:44:26;13.80;68.75
63202;DHT22;49296;48.188;11.566;2022-09-24T02:46:53;13.84;68.64
63202;DHT22;49296;48.188;11.566;2022-09-24T02:49:19;13.80;68.70
63202;DHT22;49296;48.188;11.566;2022-09-24T02:51:46;13.77;68.73
63202;DHT22;49296;48.188;11.566;2022-09-24T02:54:12;13.80;68.62
63202;DHT22;49296;48.188;11.566;2022-09-24T02:56:40;13.79;68.62
63202;DHT22;49296;48.188;11.566;2022-09-24T02:59:07;13.81;68.69
63202;DHT22;49296;48.188;11.566;2022-09-24T03:01:33;13.74;68.70
63202;DHT22;49296;48.188;11.566;2022-09-24T03:04:00;13.77;68.60
63202;DHT22;49296;48.188;11.566;2022-09-24T03:06:27;13.77;68.51
63202;DHT22;49296;48.188;11.566;2022-09-24T03:08:54;13.69;68.79
63202;DHT22;49296;48.188;11.566;2022-09-24T03:11:20;13.70;68.64
63202;DHT22;49296;48.188;11.566;2022-09-24T03:13:49;13.67;68.86
63202;DHT22;49296;48.188;11.566;2022-09-24T03:16:16;13.63;68.84
63202;DHT22;49296;48.188;11.566;2022-09-24T03:18:43;13.65;68.91
63202;DHT22;49296;48.188;11.566;2022-09-24T03:21:10;13.65;69.04
63202;DHT22;49296;48.188;11.566;2022-09-24T03:23:37;13.63;69.24
63202;DHT22;49296;48.188;11.566;2022-09-24T03:26:03;13.65;69.29
63202;DHT22;49296;48.188;11.566;2022-09-24T03:28:30;13.65;69.40
63202;DHT22;49296;48.188;11.566;2022-09-24T03:30:58;13.66;69.44
63202;DHT22;49296;48.188;11.566;2022-09-24T03:33:27;13.65;69.60
63202;DHT22;49296;48.188;11.566;2022-09-24T03:35:54;13.70;69.72
63202;DHT22;49296;48.188;11.566;2022-09-24T03:38:20;13.63;69.78
63202;DHT22;49296;48.188;11.566;2022-09-24T03:40:47;13.76;69.59
63202;DHT22;49296;48.188;11.566;2022-09-24T03:43:13;13.80;69.50
63202;DHT22;49296;48.188;11.566;2022-09-24T03:45:40;13.81;69.35
63202;DHT22;49296;48.188;11.566;2022-09-24T03:48:08;13.84;69.26
63202;DHT22;49296;48.188;11.566;2022-09-24T03:50:34;13.86;69.31
63202;DHT22;49296;48.188;11.566;2022-09-24T03:53:01;13.83;69.42
63202;DHT22;49296;48.188;11.566;2022-09-24T03:55:27;13.94;69.26
63202;DHT22;49296;48.188;11.566;2022-09-24T03:57:54;13.96;69.11
63202;DHT22;49296;48.188;11.566;2022-09-24T04:00:20;13.98;69.00
63202;DHT22;49296;48.188;11.566;2022-09-24T04:02:47;14.00;68.92
63202;DHT22;49296;48.188;11.566;2022-09-24T04:05:15;14.05;68.87
63202;DHT22;49296;48.188;11.566;2022-09-24T04:07:42;14.05;68.76
63202;DHT22;49296;48.188;11.566;2022-09-24T04:10:08;14.08;68.42
63202;DHT22;49296;48.188;11.566;2022-09-24T04:12:35;14.07;68.66
63202;DHT22;49296;48.188;11.566;2022-09-24T04:15:04;14.10;68.73
63202;DHT22;49296;48.188;11.566;2022-09-24T04:17:31;14.17;68.39
63202;DHT22;49296;48.188;11.566;2022-09-24T04:19:57;14.15;68.21
63202;DHT22;49296;48.188;11.566;2022-09-24T04:22:25;14.14;68.28
63202;DHT22;49296;48.188;11.566;2022-09-24T04:24:53;14.17;68.25
63202;DHT22;49296;48.188;11.566;2022-09-24T04:27:20;14.13;68.67
63202;DHT22;49296;48.188;11.566;2022-09-24T04:29:46;14.22;68.54
63202;DHT22;49296;48.188;11.566;2022-09-24T04:32:13;14.17;68.71
63202;DHT22;49296;48.188;11.566;2022-09-24T04:34:39;14.21;68.27
63202;DHT22;49296;48.188;11.566;2022-09-24T04:37:06;14.28;68.12
63202;DHT22;49296;48.188;11.566;2022-09-24T04:39:35;14.22;68.52
63202;DHT22;49296;48.188;11.566;2022-09-24T04:42:01;14.26;68.62
63202;DHT22;49296;48.188;11.566;2022-09-24T04:44:28;14.28;68.60
63202;DHT22;49296;48.188;11.566;2022-09-24T04:46:54;14.28;68.54
63202;DHT22;49296;48.188;11.566;2022-09-24T04:49:27;14.20;68.21
63202;DHT22;49296;48.188;11.566;2022-09-24T04:51:53;14.00;68.61
63202;DHT22;49296;48.188;11.566;2022-09-24T04:54:22;14.15;68.19
63202;DHT22;49296;48.188;11.566;2022-09-24T04:56:50;14.21;67.86
63202;DHT22;49296;48.188;11.566;2022-09-24T04:59:17;14.20;67.86
63202;DHT22;49296;48.188;11.566;2022-09-24T05:01:43;14.29;67.58
63202;DHT22;49296;48.188;11.566;2022-09-24T05:04:11;14.36;68.13
63202;DHT22;49296;48.188;11.566;2022-09-24T05:06:37;14.38;68.08
63202;DHT22;49296;48.188;11.566;2022-09-24T05:09:04;14.42;68.33
63202;DHT22;49296;48.188;11.566;2022-09-24T05:11:32;14.43;68.24
63202;DHT22;49296;48.188;11.566;2022-09-24T05:13:59;14.35;68.20
63202;DHT22;49296;48.188;11.566;2022-09-24T05:16:26;14.28;68.36
63202;DHT22;49296;48.188;11.566;2022-09-24T05:18:55;14.35;68.03
63202;DHT22;49296;48.188;11.566;2022-09-24T05:21:22;14.35;67.96
63202;DHT22;49296;48.188;11.566;2022-09-24T05:23:48;14.38;67.79
63202;DHT22;49296;48.188;11.566;2022-09-24T05:26:15;14.29;67.97
63202;DHT22;49296;48.188;11.566;2022-09-24T05:29:03;14.36;67.70
63202;DHT22;49296;48.188;11.566;2022-09-24T05:31:29;14.33;67.89
63202;DHT22;49296;48.188;11.566;2022-09-24T05:34:09;14.42;67.68
63202;DHT22;49296;48.188;11.566;2022-09-24T05:36:38;14.46;67.49
63202;DHT22;49296;48.188;11.566;2022-09-24T05:39:05;14.45;67.70
63202;DHT22;49296;48.188;11.566;2022-09-24T05:41:34;14.48;67.60
63202;DHT22;49296;48.188;11.566;2022-09-24T05:44:00;14.55;67.39
63202;DHT22;49296;48.188;11.566;2022-09-24T05:46:28;14.56;67.75
63202;DHT22;49296;48.188;11.566;2022-09-24T05:48:55;14.57;67.83
63202;DHT22;49296;48.188;11.566;2022-09-24T05:51:21;14.62;67.86
63202;DHT22;49296;48.188;11.566;2022-09-24T05:53:48;14.49;68.06
63202;DHT22;49296;48.188;11.566;2022-09-24T05:56:15;14.52;67.78
63202;DHT22;49296;48.188;11.566;2022-09-24T05:58:47;14.59;67.38
63202;DHT22;49296;48.188;11.566;2022-09-24T06:01:13;14.60;67.21
63202;DHT22;49296;48.188;11.566;2022-09-24T06:03:41;14.65;67.16
63202;DHT22;49296;48.188;11.566;2022-09-24T06:06:07;14.69;67.12
63202;DHT22;49296;48.188;11.566;2022-09-24T06:08:34;14.73;67.48
63202;DHT22;49296;48.188;11.566;2022-09-24T06:11:01;14.72;67.00
63202;DHT22;49296;48.188;11.566;2022-09-24T06:13:34;14.72;67.10
63202;DHT22;49296;48.188;11.566;2022-09-24T06:16:01;14.73;67.19
63202;DHT22;49296;48.188;11.566;2022-09-24T06:18:28;14.70;67.33
63202;DHT22;49296;48.188;11.566;2022-09-24T06:21:00;14.80;67.07
63202;DHT22;49296;48.188;11.566;2022-09-24T06:23:29;14.85;66.52
63202;DHT22;49296;48.188;11.566;2022-09-24T06:25:56;14.91;66.38
63202;DHT22;49296;48.188;11.566;2022-09-24T06:28:22;14.93;66.45
63202;DHT22;49296;48.188;11.566;2022-09-24T06:30:49;14.81;66.66
63202;DHT22;49296;48.188;11.566;2022-09-24T06:33:16;14.81;66.52
63202;DHT22;49296;48.188;11.566;2022-09-24T06:35:44;14.88;66.77
63202;DHT22;49296;48.188;11.566;2022-09-24T06:38:12;14.97;66.29
63202;DHT22;49296;48.188;11.566;2022-09-24T06:40:40;14.97;66.44
63202;DHT22;49296;48.188;11.566;2022-09-24T06:43:06;14.94;66.36
63202;DHT22;49296;48.188;11.566;2022-09-24T06:45:34;15.08;66.19
63202;DHT22;49296;48.188;11.566;2022-09-24T06:48:01;15.15;65.83
63202;DHT22;49296;48.188;11.566;2022-09-24T06:50:29;15.24;65.68
63202;DHT22;49296;48.188;11.566;2022-09-24T06:52:55;15.18;65.99
63202;DHT22;49296;48.188;11.566;2022-09-24T06:55:24;15.17;66.20
63202;DHT22;49296;48.188;11.566;2022-09-24T06:57:56;15.17;66.11
63202;DHT22;49296;48.188;11.566;2022-09-24T07:00:26;15.14;66.29
63202;DHT22;49296;48.188;11.566;2022-09-24T07:02:52;15.18;66.26
63202;DHT22;49296;48.188;11.566;2022-09-24T07:05:19;15.19;66.32
63202;DHT22;49296;48.188;11.566;2022-09-24T07:07:45;15.07;66.76
63202;DHT22;49296;48.188;11.566;2022-09-24T07:10:12;15.15;67.10
63202;DHT22;49296;48.188;11.566;2022-09-24T07:12:40;15.21;66.80
63202;DHT22;49296;48.188;11.566;2022-09-24T07:15:07;15.29;66.20
63202;DHT22;49296;48.188;11.566;2022-09-24T07:17:34;15.17;65.64
63202;DHT22;49296;48.188;11.566;2022-09-24T07:20:01;15.05;66.12
63202;DHT22;49296;48.188;11.566;2022-09-24T07:22:27;14.84;66.96
63202;DHT22;49296;48.188;11.566;2022-09-24T07:24:54;14.80;67.54
63202;DHT22;49296;48.188;11.566;2022-09-24T07:27:20;14.83;67.05
63202;DHT22;49296;48.188;11.566;2022-09-24T07:29:48;14.72;67.38
63202;DHT22;49296;48.188;11.566;2022-09-24T07:32:14;14.80;67.90
63202;DHT22;49296;48.188;11.566;2022-09-24T07:34:41;14.77;68.02
63202;DHT22;49296;48.188;11.566;2022-09-24T07:37:08;14.79;68.24
63202;DHT22;49296;48.188;11.566;2022-09-24T07:39:34;14.70;68.83
63202;DHT22;49296;48.188;11.566;2022-09-24T07:42:00;14.72;68.81
63202;DHT22;49296;48.188;11.566;2022-09-24T07:44:27;14.67;69.38
63202;DHT22;49296;48.188;11.566;2022-09-24T07:46:55;14.83;68.92
63202;DHT22;49296;48.188;11.566;2022-09-24T07:49:22;15.02;68.42
63202;DHT22;49296;48.188;11.566;2022-09-24T07:51:48;15.04;68.21
63202;DHT22;49296;48.188;11.566;2022-09-24T07:54:15;14.90;68.40
63202;DHT22;49296;48.188;11.566;2022-09-24T07:56:41;14.80;69.27
63202;DHT22;49296;48.188;11.566;2022-09-24T07:59:09;14.85;69.51
63202;DHT22;49296;48.188;11.566;2022-09-24T08:01:36;14.80;69.86
63202;DHT22;49296;48.188;11.566;2022-09-24T08:04:04;14.67;70.66
63202;DHT22;49296;48.188;11.566;2022-09-24T08:06:32;14.56;71.35
63202;DHT22;49296;48.188;11.566;2022-09-24T08:08:59;14.46;72.10
63202;DHT22;49296;48.188;11.566;2022-09-24T08:11:26;14.57;72.00
63202;DHT22;49296;48.188;11.566;2022-09-24T08:13:53;14.60;72.25
63202;DHT22;49296;48.188;11.566;2022-09-24T08:16:20;14.57;72.92
63202;DHT22;49296;48.188;11.566;2022-09-24T08:18:46;14.65;73.26
63202;DHT22;49296;48.188;11.566;2022-09-24T08:21:14;14.39;74.71
63202;DHT22;49296;48.188;11.566;2022-09-24T08:23:41;14.43;74.88
63202;DHT22;49296;48.188;11.566;2022-09-24T08:26:08;14.49;74.85
63202;DHT22;49296;48.188;11.566;2022-09-24T08:28:35;14.38;75.46
63202;DHT22;49296;48.188;11.566;2022-09-24T08:31:02;14.43;75.58
63202;DHT22;49296;48.188;11.566;2022-09-24T08:33:31;14.42;75.76
63202;DHT22;49296;48.188;11.566;2022-09-24T08:35:58;14.46;76.08
63202;DHT22;49296;48.188;11.566;2022-09-24T08:38:26;14.50;75.95
63202;DHT22;49296;48.188;11.566;2022-09-24T08:40:53;14.65;75.41
63202;DHT22;49296;48.188;11.566;2022-09-24T08:43:25;14.66;75.57
63202;DHT22;49296;48.188;11.566;2022-09-24T08:45:55;14.85;75.09
63202;DHT22;49296;48.188;11.566;2022-09-24T08:48:41;14.81;75.95
63202;DHT22;49296;48.188;11.566;2022-09-24T08:51:10;14.91;76.00
63202;DHT22;49296;48.188;11.566;2022-09-24T08:53:41;14.97;75.83
63202;DHT22;49296;48.188;11.566;2022-09-24T08:56:10;15.15;75.59
63202;DHT22;49296;48.188;11.566;2022-09-24T08:58:38;15.15;75.83
63202;DHT22;49296;48.188;11.566;2022-09-24T09:01:06;15.07;75.29
63202;DHT22;49296;48.188;11.566;2022-09-24T09:03:39;15.08;75.24
63202;DHT22;49296;48.188;11.566;2022-09-24T09:06:09;15.19;75.04
63202;DHT22;49296;48.188;11.566;2022-09-24T09:08:39;15.31;74.23
63202;DHT22;49296;48.188;11.566;2022-09-24T09:11:10;15.19;74.22
63202;DHT22;49296;48.188;11.566;2022-09-24T09:13:38;15.29;74.27
63202;DHT22;49296;48.188;11.566;2022-09-24T09:16:08;15.27;74.59
63202;DHT22;49296;48.188;11.566;2022-09-24T09:18:37;15.39;74.14
63202;DHT22;49296;48.188;11.566;2022-09-24T09:21:07;15.49;73.94
63202;DHT22;49296;48.188;11.566;2022-09-24T09:23:40;15.29;73.95
63202;DHT22;49296;48.188;11.566;2022-09-24T09:26:12;15.19;74.94
63202;DHT22;49296;48.188;11.566;2022-09-24T09:28:38;15.36;73.82
63202;DHT22;49296;48.188;11.566;2022-09-24T09:31:06;15.18;74.53
63202;DHT22;49296;48.188;11.566;2022-09-24T09:33:39;15.42;74.10
63202;DHT22;49296;48.188;11.566;2022-09-24T09:36:13;15.43;74.07
63202;DHT22;49296;48.188;11.566;2022-09-24T09:38:44;15.43;73.94
63202;DHT22;49296;48.188;11.566;2022-09-24T09:41:15;15.39;73.98
63202;DHT22;49296;48.188;11.566;2022-09-24T09:43:44;15.47;74.38
63202;DHT22;49296;48.188;11.566;2022-09-24T09:46:11;15.52;74.90
63202;DHT22;49296;48.188;11.566;2022-09-24T09:48:42;15.60;73.94
63202;DHT22;49296;48.188;11.566;2022-09-24T09:51:12;15.53;74.64
63202;DHT22;49296;48.188;11.566;2022-09-24T09:53:51;15.70;74.39
63202;DHT22;49296;48.188;11.566;2022-09-24T09:56:21;15.74;74.03
63202;DHT22;49296;48.188;11.566;2022-09-24T09:58:48;15.55;73.53
63202;DHT22;49296;48.188;11.566;2022-09-24T10:01:19;15.57;74.09
63202;DHT22;49296;48.188;11.566;2022-09-24T10:03:56;15.53;74.37
63202;DHT22;49296;48.188;11.566;2022-09-24T10:06:28;15.49;75.17
63202;DHT22;49296;48.188;11.566;2022-09-24T10:09:05;15.22;75.73
63202;DHT22;49296;48.188;11.566;2022-09-24T10:11:33;15.19;75.37
63202;DHT22;49296;48.188;11.566;2022-09-24T10:14:02;15.29;75.93
63202;DHT22;49296;48.188;11.566;2022-09-24T10:16:29;15.27;76.74
63202;DHT22;49296;48.188;11.566;2022-09-24T10:18:55;15.38;76.47
63202;DHT22;49296;48.188;11.566;2022-09-24T10:21:29;15.49;76.17
63202;DHT22;49296;48.188;11.566;2022-09-24T10:23:59;15.25;76.79
63202;DHT22;49296;48.188;11.566;2022-09-24T10:26:34;15.32;76.93
63202;DHT22;49296;48.188;11.566;2022-09-24T10:29:00;15.39;76.34
63202;DHT22;49296;48.188;11.566;2022-09-24T10:31:45;15.32;76.67
63202;DHT22;49296;48.188;11.566;2022-09-24T10:34:19;15.24;77.25
63202;DHT22;49296;48.188;11.566;2022-09-24T10:36:49;15.07;77.26
63202;DHT22;49296;48.188;11.566;2022-09-24T10:39:16;15.12;77.78
63202;DHT22;49296;48.188;11.566;2022-09-24T10:41:46;15.17;78.24
63202;DHT22;49296;48.188;11.566;2022-09-24T10:44:12;15.10;77.86
63202;DHT22;49296;48.188;11.566;2022-09-24T10:46:49;14.90;78.04
63202;DHT22;49296;48.188;11.566;2022-09-24T10:49:24;14.70;79.07
63202;DHT22;49296;48.188;11.566;2022-09-24T10:51:54;14.67;79.32
63202;DHT22;49296;48.188;11.566;2022-09-24T10:54:36;14.77;79.45
63202;DHT22;49296;48.188;11.566;2022-09-24T10:57:08;14.72;79.72
63202;DHT22;49296;48.188;11.566;2022-09-24T10:59:40;14.73;80.14
63202;DHT22;49296;48.188;11.566;2022-09-24T11:02:17;14.69;79.60
63202;DHT22;49296;48.188;11.566;2022-09-24T11:04:49;14.76;80.07
63202;DHT22;49296;48.188;11.566;2022-09-24T11:09:58;14.94;79.74
63202;DHT22;49296;48.188;11.566;2022-09-24T11:12:29;14.90;79.75
63202;DHT22;49296;48.188;11.566;2022-09-24T11:15:02;14.91;78.80
63202;DHT22;49296;48.188;11.566;2022-09-24T11:17:31;14.87;79.52
63202;DHT22;49296;48.188;11.566;2022-09-24T11:20:02;14.80;79.70
63202;DHT22;49296;48.188;11.566;2022-09-24T11:22:34;14.95;79.70
63202;DHT22;49296;48.188;11.566;2022-09-24T11:25:16;14.98;79.67
63202;DHT22;49296;48.188;11.566;2022-09-24T11:27:53;15.02;79.97
63202;DHT22;49296;48.188;11.566;2022-09-24T11:30:21;15.19;79.13
63202;DHT22;49296;48.188;11.566;2022-09-24T11:32:55;15.18;78.69
63202;DHT22;49296;48.188;11.566;2022-09-24T11:35:28;15.19;79.15
63202;DHT22;49296;48.188;11.566;2022-09-24T11:38:13;15.12;79.01
63202;DHT22;49296;48.188;11.566;2022-09-24T11:40:47;15.00;79.96
63202;DHT22;49296;48.188;11.566;2022-09-24T11:43:30;14.98;79.97
63202;DHT22;49296;48.188;11.566;2022-09-24T11:46:05;15.10;79.46
63202;DHT22;49296;48.188;11.566;2022-09-24T11:51:22;15.34;79.01
63202;DHT22;49296;48.188;11.566;2022-09-24T11:53:52;15.34;78.78
63202;DHT22;49296;48.188;11.566;2022-09-24T11:56:19;15.12;79.64
63202;DHT22;49296;48.188;11.566;2022-09-24T11:58:50;14.95;80.32
63202;DHT22;49296;48.188;11.566;2022-09-24T12:01:21;15.08;79.98
63202;DHT22;49296;48.188;11.566;2022-09-24T12:03:50;15.05;79.62
63202;DHT22;49296;48.188;11.566;2022-09-24T12:06:19;15.19;79.60
63202;DHT22;49296;48.188;11.566;2022-09-24T12:08:48;15.07;79.73
63202;DHT22;49296;48.188;11.566;2022-09-24T12:11:17;15.04;80.39
63202;DHT22;49296;48.188;11.566;2022-09-24T12:13:45;15.04;80.29
63202;DHT22;49296;48.188;11.566;2022-09-24T12:16:14;15.01;79.78
63202;DHT22;49296;48.188;11.566;2022-09-24T12:18:43;15.15;79.55
63202;DHT22;49296;48.188;11.566;2022-09-24T12:21:13;15.25;79.56
63202;DHT22;49296;48.188;11.566;2022-09-24T12:23:42;15.28;78.90
63202;DHT22;49296;48.188;11.566;2022-09-24T12:26:12;15.32;78.99
63202;DHT22;49296;48.188;11.566;2022-09-24T12:28:41;15.43;78.95
63202;DHT22;49296;48.188;11.566;2022-09-24T12:31:28;15.53;78.58
63202;DHT22;49296;48.188;11.566;2022-09-24T12:34:15;15.42;78.46
63202;DHT22;49296;48.188;11.566;2022-09-24T12:36:46;15.42;78.91
63202;DHT22;49296;48.188;11.566;2022-09-24T12:39:19;15.29;79.53
63202;DHT22;49296;48.188;11.566;2022-09-24T12:41:47;15.57;78.96
63202;DHT22;49296;48.188;11.566;2022-09-24T12:44:20;15.74;78.69
63202;DHT22;49296;48.188;11.566;2022-09-24T12:46:49;15.88;77.42
63202;DHT22;49296;48.188;11.566;2022-09-24T12:49:18;15.70;77.48
63202;DHT22;49296;48.188;11.566;2022-09-24T12:51:47;15.80;77.69
63202;DHT22;49296;48.188;11.566;2022-09-24T12:54:19;15.53;78.25
63202;DHT22;49296;48.188;11.566;2022-09-24T12:56:48;15.53;78.48
63202;DHT22;49296;48.188;11.566;2022-09-24T12:59:24;15.69;78.02
63202;DHT22;49296;48.188;11.566;2022-09-24T13:01:52;15.80;77.63
63202;DHT22;49296;48.188;11.566;2022-09-24T13:04:24;15.71;77.70
63202;DHT22;49296;48.188;11.566;2022-09-24T13:06:51;15.66;77.70
63202;DHT22;49296;48.188;11.566;2022-09-24T13:12:17;15.73;77.29
63202;DHT22;49296;48.188;11.566;2022-09-24T13:14:46;15.57;77.63
63202;DHT22;49296;48.188;11.566;2022-09-24T13:17:15;15.60;77.50
63202;DHT22;49296;48.188;11.566;2022-09-24T13:19:42;15.56;77.84
63202;DHT22;49296;48.188;11.566;2022-09-24T13:22:20;15.87;77.16
63202;DHT22;49296;48.188;11.566;2022-09-24T13:24:48;16.15;76.50
63202;DHT22;49296;48.188;11.566;2022-09-24T13:27:19;16.28;75.92
63202;DHT22;49296;48.188;11.566;2022-09-24T13:29:46;16.28;74.90
63202;DHT22;49296;48.188;11.566;2022-09-24T13:32:14;16.29;74.36
63202;DHT22;49296;48.188;11.566;2022-09-24T13:34:45;16.05;74.35
63202;DHT22;49296;48.188;11.566;2022-09-24T13:37:17;16.16;74.33
63202;DHT22;49296;48.188;11.566;2022-09-24T13:39:46;16.09;74.80
63202;DHT22;49296;48.188;11.566;2022-09-24T13:42:16;16.11;74.82
63202;DHT22;49296;48.188;11.566;2022-09-24T13:44:43;16.24;74.38
63202;DHT22;49296;48.188;11.566;2022-09-24T13:47:13;16.30;74.43
63202;DHT22;49296;48.188;11.566;2022-09-24T13:49:40;16.46;74.03
63202;DHT22;49296;48.188;11.566;2022-09-24T13:52:10;16.42;73.97
63202;DHT22;49296;48.188;11.566;2022-09-24T13:54:42;16.45;73.75
63202;DHT22;49296;48.188;11.566;2022-09-24T13:57:17;16.46;73.48
63202;DHT22;49296;48.188;11.566;2022-09-24T13:59:45;16.56;73.17
63202;DHT22;49296;48.188;11.566;2022-09-24T14:02:21;16.52;73.62
63202;DHT22;49296;48.188;11.566;2022-09-24T14:04:51;16.36;74.15
63202;DHT22;49296;48.188;11.566;2022-09-24T14:07:20;16.32;73.43
63202;DHT22;49296;48.188;11.566;2022-09-24T14:09:46;16.42;73.15
63202;DHT22;49296;48.188;11.566;2022-09-24T14:12:16;16.41;73.27
63202;DHT22;49296;48.188;11.566;2022-09-24T14:14:49;16.38;73.65
63202;DHT22;49296;48.188;11.566;2022-09-24T14:17:17;16.14;73.89
63202;DHT22;49296;48.188;11.566;2022-09-24T14:19:44;16.32;73.33
63202;DHT22;49296;48.188;11.566;2022-09-24T14:22:11;16.32;72.86
63202;DHT22;49296;48.188;11.566;2022-09-24T14:24:41;16.28;72.85
63202;DHT22;49296;48.188;11.566;2022-09-24T14:27:10;16.35;72.72
63202;DHT22;49296;48.188;11.566;2022-09-24T14:29:42;16.43;72.58
63202;DHT22;49296;48.188;11.566;2022-09-24T14:32:15;16.50;72.08
63202;DHT22;49296;48.188;11.566;2022-09-24T14:34:44;16.25;73.04
63202;DHT22;49296;48.188;11.566;2022-09-24T14:37:11;16.01;73.45
63202;DHT22;49296;48.188;11.566;2022-09-24T14:39:44;16.05;73.64
63202;DHT22;49296;48.188;11.566;2022-09-24T14:42:12;16.32;72.60
63202;DHT22;49296;48.188;11.566;2022-09-24T14:44:43;16.25;72.59
63202;DHT22;49296;48.188;11.566;2022-09-24T14:47:21;16.22;72.78
63202;DHT22;49296;48.188;11.566;2022-09-24T14:49:49;16.21;73.74
63202;DHT22;49296;48.188;11.566;2022-09-24T14:52:27;16.28;73.26
63202;DHT22;49296;48.188;11.566;2022-09-24T14:55:09;16.19;72.43
63202;DHT22;49296;48.188;11.566;2022-09-24T14:57:37;16.29;72.92
63202;DHT22;49296;48.188;11.566;2022-09-24T15:00:17;16.24;73.59
63202;DHT22;49296;48.188;11.566;2022-09-24T15:02:45;16.28;73.70
63202;DHT22;49296;48.188;11.566;2022-09-24T15:05:14;16.46;73.67
63202;DHT22;49296;48.188;11.566;2022-09-24T15:07:40;16.48;74.03
63202;DHT22;49296;48.188;11.566;2022-09-24T15:10:17;16.11;73.80
63202;DHT22;49296;48.188;11.566;2022-09-24T15:12:45;16.15;73.56
63202;DHT22;49296;48.188;11.566;2022-09-24T15:15:24;16.28;73.20
63202;DHT22;49296;48.188;11.566;2022-09-24T15:17:51;16.14;73.88
63202;DHT22;49296;48.188;11.566;2022-09-24T15:20:17;16.18;73.91
63202;DHT22;49296;48.188;11.566;2022-09-24T15:22:44;16.24;73.42
63202;DHT22;49296;48.188;11.566;2022-09-24T15:25:11;16.33;73.68
63202;DHT22;49296;48.188;11.566;2022-09-24T15:27:40;16.14;74.60
63202;DHT22;49296;48.188;11.566;2022-09-24T15:30:09;16.15;74.73
63202;DHT22;49296;48.188;11.566;2022-09-24T15:32:36;16.28;75.13
63202;DHT22;49296;48.188;11.566;2022-09-24T15:35:03;16.25;75.20
63202;DHT22;49296;48.188;11.566;2022-09-24T15:37:32;16.26;74.99